createdAt,value
2022-12-28T00:01:46.207Z,98.10
2022-12-28T00:04:14.715Z,97.80
2022-12-28T00:06:41.386Z,97.80
2022-12-28T00:09:11.154Z,98.30
2022-12-28T00:11:38.244Z,98.30
2022-12-28T00:14:05.152Z,98.30
2022-12-28T00:16:33.711Z,98.10
2022-12-28T00:19:03.765Z,98.30
2022-12-28T00:21:30.603Z,98.30
2022-12-28T00:23:59.296Z,98.30
2022-12-28T00:26:31.505Z,98.30
2022-12-28T00:29:04.236Z,98.30
2022-12-28T00:31:33.235Z,98.30
2022-12-28T00:33:59.991Z,98.30
2022-12-28T00:37:09.319Z,98.30
2022-12-28T00:39:13.356Z,98.30
2022-12-28T00:41:39.965Z,98.30
2022-12-28T00:44:08.333Z,98.30
2022-12-28T00:46:35.212Z,98.30
2022-12-28T00:49:01.866Z,98.30
2022-12-28T00:51:28.525Z,98.30
2022-12-28T00:53:55.302Z,98.30
2022-12-28T00:56:22.835Z,98.30
2022-12-28T00:58:50.002Z,98.20
2022-12-28T01:01:22.722Z,98.20
2022-12-28T01:03:51.190Z,97.80
2022-12-28T01:06:20.067Z,98.00
2022-12-28T01:08:46.978Z,98.30
2022-12-28T01:11:25.952Z,98.30
2022-12-28T01:13:55.266Z,98.30
2022-12-28T01:16:24.876Z,98.20
2022-12-28T01:18:54.241Z,97.60
2022-12-28T01:21:23.063Z,97.70
2022-12-28T01:23:53.277Z,97.70
2022-12-28T01:26:19.931Z,98.10
2022-12-28T01:28:46.620Z,98.30
2022-12-28T01:31:15.668Z,98.30
2022-12-28T01:33:43.356Z,98.10
2022-12-28T01:36:16.402Z,98.20
2022-12-28T01:38:43.945Z,97.90
2022-12-28T01:41:13.402Z,98.20
2022-12-28T01:43:44.759Z,97.80
2022-12-28T01:46:20.125Z,97.70
2022-12-28T01:48:59.636Z,97.70
2022-12-28T01:51:31.527Z,97.60
2022-12-28T01:54:01.123Z,97.90
2022-12-28T01:56:28.253Z,98.30
2022-12-28T01:58:56.460Z,98.20
2022-12-28T02:01:23.631Z,98.00
2022-12-28T02:03:50.546Z,97.70
2022-12-28T02:06:18.224Z,97.90
2022-12-28T02:09:07.106Z,98.10
2022-12-28T02:11:34.946Z,98.00
2022-12-28T02:14:02.877Z,97.60
2022-12-28T02:16:29.798Z,97.80
2022-12-28T02:18:56.838Z,97.50
2022-12-28T02:21:43.677Z,97.50
2022-12-28T02:25:20.898Z,97.60
2022-12-28T02:28:23.188Z,97.50
2022-12-28T02:31:18.030Z,98.00
2022-12-28T02:33:54.701Z,98.30
2022-12-28T02:36:27.892Z,98.30
2022-12-28T02:39:02.354Z,98.20
2022-12-28T02:41:31.962Z,98.20
2022-12-28T02:44:00.689Z,98.00
2022-12-28T02:46:51.932Z,98.00
2022-12-28T02:49:47.604Z,97.80
2022-12-28T02:52:38.753Z,97.80
2022-12-28T02:55:45.605Z,97.60
2022-12-28T02:58:48.749Z,98.10
2022-12-28T03:01:40.454Z,97.90
2022-12-28T03:04:33.455Z,97.60
2022-12-28T03:07:26.566Z,98.10
2022-12-28T03:10:03.111Z,98.20
2022-12-28T03:12:34.574Z,98.20
2022-12-28T03:15:10.382Z,98.10
2022-12-28T03:17:59.897Z,98.30
2022-12-28T03:20:49.222Z,98.30
2022-12-28T03:23:40.075Z,98.30
2022-12-28T03:26:29.242Z,98.10
2022-12-28T03:29:19.313Z,97.60
2022-12-28T03:31:46.857Z,97.90
2022-12-28T03:34:15.707Z,98.10
2022-12-28T03:36:56.142Z,98.30
2022-12-28T03:39:41.630Z,98.30
2022-12-28T03:42:44.104Z,98.30
2022-12-28T03:45:45.800Z,98.30
2022-12-28T03:48:16.486Z,98.30
2022-12-28T03:50:46.540Z,98.30
2022-12-28T03:53:18.000Z,98.10
2022-12-28T03:55:44.707Z,98.20
2022-12-28T03:58:13.182Z,98.30
2022-12-28T04:00:39.864Z,98.30
2022-12-28T04:03:07.554Z,98.30
2022-12-28T04:05:35.095Z,97.90
2022-12-28T04:08:01.752Z,98.10
2022-12-28T04:10:28.454Z,98.20
2022-12-28T04:12:56.874Z,98.00
2022-12-28T04:15:29.059Z,98.10
2022-12-28T04:17:55.769Z,98.30
2022-12-28T04:20:23.213Z,98.30
2022-12-28T04:22:50.784Z,98.30
2022-12-28T04:25:17.506Z,98.30
2022-12-28T04:27:44.146Z,98.30
2022-12-28T04:30:29.414Z,98.30
2022-12-28T04:32:56.155Z,98.30
2022-12-28T04:35:23.025Z,98.30
2022-12-28T04:37:50.218Z,98.30
2022-12-28T04:40:16.860Z,98.20
2022-12-28T04:42:43.523Z,98.00
2022-12-28T04:45:10.285Z,97.80
2022-12-28T04:47:36.923Z,97.90
2022-12-28T04:50:03.707Z,98.10
2022-12-28T04:52:30.332Z,98.30
2022-12-28T04:54:56.946Z,98.30
2022-12-28T04:57:23.587Z,98.30
2022-12-28T04:59:50.273Z,98.30
2022-12-28T05:02:17.365Z,98.30
2022-12-28T05:04:44.005Z,98.30
2022-12-28T05:07:10.658Z,98.30
2022-12-28T05:09:37.325Z,98.30
2022-12-28T05:12:04.203Z,98.30
2022-12-28T05:14:36.633Z,98.30
2022-12-28T05:17:03.936Z,98.30
2022-12-28T05:19:30.558Z,98.30
2022-12-28T05:21:57.228Z,98.30
2022-12-28T05:24:24.083Z,98.30
2022-12-28T05:26:50.697Z,98.30
2022-12-28T05:29:17.340Z,98.30
2022-12-28T05:31:43.991Z,98.30
2022-12-28T05:34:10.660Z,98.30
2022-12-28T05:36:39.402Z,98.30
2022-12-28T05:39:06.349Z,98.30
2022-12-28T05:41:32.983Z,98.30
2022-12-28T05:44:00.003Z,98.30
2022-12-28T05:46:32.476Z,98.30
2022-12-28T05:48:59.444Z,98.30
2022-12-28T05:51:28.938Z,98.30
2022-12-28T05:53:56.577Z,98.30
2022-12-28T05:56:26.284Z,98.30
2022-12-28T05:58:55.435Z,98.30
2022-12-28T06:01:24.279Z,98.30
2022-12-28T06:03:56.819Z,98.30
2022-12-28T06:06:24.439Z,98.30
2022-12-28T06:08:51.199Z,98.30
2022-12-28T06:11:20.976Z,98.30
2022-12-28T06:13:47.927Z,98.30
2022-12-28T06:16:17.513Z,98.30
2022-12-28T06:18:45.050Z,98.30
2022-12-28T06:21:14.569Z,98.30
2022-12-28T06:23:42.083Z,98.30
2022-12-28T06:26:10.508Z,98.30
2022-12-28T06:28:38.081Z,98.30
2022-12-28T06:31:06.990Z,98.30
2022-12-28T06:33:34.461Z,98.30
2022-12-28T06:36:02.795Z,98.30
2022-12-28T06:38:32.521Z,98.30
2022-12-28T06:41:13.349Z,98.30
2022-12-28T06:43:42.277Z,98.30
2022-12-28T06:46:09.638Z,98.30
2022-12-28T06:48:36.621Z,98.30
2022-12-28T06:51:04.822Z,98.30
2022-12-28T06:53:34.358Z,98.30
2022-12-28T06:56:04.000Z,98.30
2022-12-28T06:58:30.973Z,98.30
2022-12-28T07:01:04.913Z,98.30
2022-12-28T07:03:31.721Z,98.30
2022-12-28T07:06:02.757Z,98.30
2022-12-28T07:08:30.198Z,98.30
2022-12-28T07:11:05.636Z,98.30
2022-12-28T07:13:33.323Z,98.30
2022-12-28T07:16:17.868Z,98.30
2022-12-28T07:18:44.741Z,98.30
2022-12-28T07:21:15.708Z,98.30
2022-12-28T07:23:43.027Z,98.30
2022-12-28T07:26:15.217Z,98.30
2022-12-28T07:28:46.421Z,98.30
2022-12-28T07:31:19.506Z,98.30
2022-12-28T07:33:46.898Z,98.30
2022-12-28T07:36:16.358Z,98.30
2022-12-28T07:38:43.646Z,98.30
2022-12-28T07:41:19.124Z,98.30
2022-12-28T07:43:46.072Z,98.30
2022-12-28T07:46:20.931Z,98.30
2022-12-28T07:48:48.200Z,98.30
2022-12-28T07:51:21.260Z,98.30
2022-12-28T07:53:49.949Z,98.30
2022-12-28T07:56:17.321Z,98.30
2022-12-28T08:01:17.257Z,98.30
2022-12-28T08:03:44.474Z,98.30
2022-12-28T08:06:14.168Z,98.30
2022-12-28T08:08:43.937Z,98.30
2022-12-28T08:11:16.192Z,98.30
2022-12-28T08:13:45.127Z,98.30
2022-12-28T08:16:13.602Z,98.30
2022-12-28T08:18:41.177Z,98.30
2022-12-28T08:21:20.808Z,98.30
2022-12-28T08:23:48.032Z,98.30
2022-12-28T08:26:19.019Z,98.30
2022-12-28T08:28:47.851Z,98.30
2022-12-28T08:31:26.491Z,98.30
2022-12-28T08:33:55.063Z,98.30
2022-12-28T08:36:22.194Z,98.30
2022-12-28T08:38:49.636Z,98.30
2022-12-28T08:41:18.839Z,98.30
2022-12-28T08:43:46.240Z,98.30
2022-12-28T08:46:19.325Z,98.30
2022-12-28T08:48:47.598Z,98.30
2022-12-28T08:51:17.402Z,98.30
2022-12-28T08:53:44.716Z,98.30
2022-12-28T08:56:14.067Z,98.30
2022-12-28T08:58:42.429Z,98.30
2022-12-28T09:01:11.781Z,98.30
2022-12-28T09:03:41.718Z,98.30
2022-12-28T09:06:11.546Z,98.30
2022-12-28T09:08:38.701Z,98.30
2022-12-28T09:11:08.065Z,98.30
2022-12-28T09:13:35.192Z,98.30
2022-12-28T09:16:05.172Z,98.30
2022-12-28T09:18:32.298Z,98.30
2022-12-28T09:21:09.188Z,98.30
2022-12-28T09:23:36.536Z,98.30
2022-12-28T09:26:05.196Z,98.30
2022-12-28T09:28:32.159Z,98.30
2022-12-28T09:31:01.410Z,98.30
2022-12-28T09:34:24.825Z,98.30
2022-12-28T09:36:38.243Z,98.30
2022-12-28T09:39:07.590Z,98.20
2022-12-28T09:41:42.295Z,98.30
2022-12-28T09:44:34.835Z,98.30
2022-12-28T09:47:04.290Z,98.30
2022-12-28T09:49:59.099Z,98.30
2022-12-28T09:52:36.815Z,98.30
2022-12-28T09:55:12.783Z,98.30
2022-12-28T09:57:44.668Z,98.30
2022-12-28T10:00:18.066Z,98.30
2022-12-28T10:02:49.380Z,98.30
2022-12-28T10:05:16.312Z,98.30
2022-12-28T10:07:43.569Z,98.30
2022-12-28T10:10:16.898Z,98.30
2022-12-28T10:12:45.422Z,98.30
2022-12-28T10:15:14.031Z,98.30
2022-12-28T10:17:42.273Z,98.30
2022-12-28T10:20:16.837Z,98.30
2022-12-28T10:22:49.890Z,98.30
2022-12-28T10:25:21.033Z,98.30
2022-12-28T10:27:47.764Z,98.30
2022-12-28T10:30:29.813Z,96.90
2022-12-28T10:33:07.769Z,96.70
2022-12-28T10:35:42.738Z,96.10
2022-12-28T10:38:30.382Z,95.10
2022-12-28T10:41:01.135Z,94.30
2022-12-28T10:43:30.514Z,93.70
2022-12-28T10:46:00.589Z,93.00
2022-12-28T10:48:31.855Z,93.10
2022-12-28T10:51:11.840Z,93.20
2022-12-28T10:53:48.640Z,93.20
2022-12-28T10:56:21.400Z,92.00
2022-12-28T10:58:53.658Z,90.70
2022-12-28T11:01:29.128Z,90.20
2022-12-28T11:03:56.006Z,90.40
2022-12-28T11:06:27.421Z,90.30
2022-12-28T11:09:12.893Z,89.90
2022-12-28T11:11:40.757Z,90.40
2022-12-28T11:14:14.395Z,90.80
2022-12-28T11:16:41.777Z,90.00
2022-12-28T11:19:10.170Z,89.70
2022-12-28T11:21:37.556Z,89.30
2022-12-28T11:24:04.934Z,89.90
2022-12-28T11:26:32.930Z,89.90
2022-12-28T11:29:01.820Z,89.90
2022-12-28T11:31:33.503Z,90.20
2022-12-28T11:34:04.602Z,90.40
2022-12-28T11:36:37.807Z,88.90
2022-12-28T11:39:27.217Z,89.00
2022-12-28T11:42:28.158Z,89.00
2022-12-28T11:44:42.018Z,89.00
2022-12-28T11:47:18.233Z,89.40
2022-12-28T11:49:47.167Z,89.60
2022-12-28T11:52:16.892Z,89.20
2022-12-28T11:55:22.220Z,88.70
2022-12-28T11:57:49.771Z,88.80
2022-12-28T12:00:23.107Z,89.10
2022-12-28T12:03:01.539Z,88.90
2022-12-28T12:05:37.780Z,88.90
2022-12-28T12:08:14.102Z,89.00
2022-12-28T12:10:42.865Z,89.50
2022-12-28T12:13:28.020Z,89.50
2022-12-28T12:15:59.183Z,89.50
2022-12-28T12:18:28.883Z,89.40
2022-12-28T12:21:15.014Z,89.70
2022-12-28T12:23:51.184Z,89.70
2022-12-28T12:26:38.725Z,90.10
2022-12-28T12:29:17.426Z,90.20
2022-12-28T12:31:48.580Z,90.30
2022-12-28T12:34:22.489Z,90.30
2022-12-28T12:37:28.790Z,90.60
2022-12-28T12:40:17.309Z,90.40
2022-12-28T12:43:11.359Z,90.50
2022-12-28T12:45:44.218Z,90.50
2022-12-28T12:48:26.014Z,90.70
2022-12-28T12:51:25.435Z,91.10
2022-12-28T12:54:13.412Z,90.50
2022-12-28T12:57:01.164Z,89.80
2022-12-28T13:00:02.040Z,89.30
2022-12-28T13:02:56.485Z,89.20
2022-12-28T13:05:27.068Z,88.30
2022-12-28T13:07:56.479Z,88.30
2022-12-28T13:10:44.525Z,87.00
2022-12-28T13:13:22.189Z,87.10
2022-12-28T13:15:49.124Z,87.50
2022-12-28T13:21:12.363Z,87.30
2022-12-28T13:23:44.496Z,87.70
2022-12-28T13:26:13.875Z,87.90
2022-12-28T13:28:51.450Z,87.70
2022-12-28T13:31:24.805Z,87.70
2022-12-28T13:34:24.841Z,87.60
2022-12-28T13:36:57.917Z,87.70
2022-12-28T13:39:26.785Z,87.50
2022-12-28T13:42:04.817Z,87.80
2022-12-28T13:44:57.438Z,87.80
2022-12-28T13:47:35.695Z,88.40
2022-12-28T13:50:14.433Z,88.40
2022-12-28T13:52:47.081Z,88.60
2022-12-28T13:55:20.185Z,88.70
2022-12-28T13:57:57.529Z,89.00
2022-12-28T14:00:26.759Z,89.70
2022-12-28T14:02:55.999Z,90.30
2022-12-28T14:05:26.521Z,89.10
2022-12-28T14:07:55.137Z,89.40
2022-12-28T14:10:22.569Z,89.10
2022-12-28T14:12:50.649Z,89.40
2022-12-28T14:15:18.396Z,89.90
2022-12-28T14:17:47.313Z,91.10
2022-12-28T14:20:14.356Z,91.70
2022-12-28T14:22:41.766Z,91.60
2022-12-28T14:25:20.109Z,91.70
2022-12-28T14:28:00.211Z,91.10
2022-12-28T14:30:33.695Z,91.10
2022-12-28T14:33:33.252Z,90.20
2022-12-28T14:36:02.747Z,89.80
2022-12-28T14:38:38.498Z,89.90
2022-12-28T14:41:06.514Z,90.30
2022-12-28T14:43:37.225Z,90.60
2022-12-28T14:46:30.017Z,91.10
2022-12-28T14:48:57.096Z,91.40
2022-12-28T14:51:25.125Z,91.00
2022-12-28T14:54:15.661Z,91.00
2022-12-28T14:56:49.301Z,91.50
2022-12-28T14:59:25.406Z,92.20
2022-12-28T15:01:52.589Z,91.90
2022-12-28T15:04:39.409Z,92.10
2022-12-28T15:07:11.748Z,92.50
2022-12-28T15:09:38.712Z,93.70
2022-12-28T15:12:18.305Z,94.30
2022-12-28T15:14:44.964Z,94.70
2022-12-28T15:17:11.718Z,94.80
2022-12-28T15:19:38.873Z,95.20
2022-12-28T15:22:05.968Z,95.10
2022-12-28T15:24:34.584Z,95.40
2022-12-28T15:27:02.601Z,95.80
2022-12-28T15:30:03.718Z,95.90
2022-12-28T15:32:16.278Z,96.10
2022-12-28T15:34:42.885Z,96.40
2022-12-28T15:37:09.513Z,96.50
2022-12-28T15:39:36.221Z,96.70
2022-12-28T15:42:02.908Z,97.20
2022-12-28T15:44:29.532Z,97.40
2022-12-28T15:46:56.228Z,97.50
2022-12-28T15:49:22.975Z,97.60
2022-12-28T15:51:49.912Z,97.80
2022-12-28T15:54:16.554Z,98.00
2022-12-28T15:56:43.410Z,97.90
2022-12-28T15:59:14.655Z,98.10
2022-12-28T16:01:44.788Z,98.00
2022-12-28T16:04:11.957Z,98.10
2022-12-28T16:06:44.170Z,98.20
2022-12-28T16:09:13.187Z,98.30
2022-12-28T16:11:40.810Z,98.30
2022-12-28T16:14:08.906Z,98.30
2022-12-28T16:16:38.609Z,98.30
2022-12-28T16:19:06.875Z,98.30
2022-12-28T16:21:33.933Z,98.30
2022-12-28T16:24:01.062Z,98.30
2022-12-28T16:26:28.389Z,98.30
2022-12-28T16:28:55.446Z,98.30
2022-12-28T16:31:24.863Z,98.30
2022-12-28T16:34:00.720Z,98.30
2022-12-28T16:36:28.064Z,98.30
2022-12-28T16:38:56.748Z,98.30
2022-12-28T16:41:24.362Z,98.30
2022-12-28T16:43:51.986Z,98.00
2022-12-28T16:46:19.016Z,98.30
2022-12-28T16:48:45.727Z,98.10
2022-12-28T16:51:12.819Z,98.20
2022-12-28T16:53:39.679Z,98.30
2022-12-28T16:56:07.049Z,98.00
2022-12-28T16:58:33.968Z,98.20
2022-12-28T17:01:09.060Z,98.20
2022-12-28T17:03:36.833Z,98.30
2022-12-28T17:06:04.464Z,98.30
2022-12-28T17:08:31.211Z,98.30
2022-12-28T17:10:57.878Z,98.30
2022-12-28T17:13:24.723Z,98.30
2022-12-28T17:15:51.485Z,98.30
2022-12-28T17:18:18.141Z,98.30
2022-12-28T17:20:45.984Z,98.30
2022-12-28T17:23:13.428Z,98.30
2022-12-28T17:25:40.189Z,98.30
2022-12-28T17:28:06.973Z,98.30
2022-12-28T17:30:33.969Z,98.30
2022-12-28T17:33:01.058Z,98.30
2022-12-28T17:35:27.754Z,98.30
2022-12-28T17:37:54.420Z,98.20
2022-12-28T17:40:21.233Z,98.10
2022-12-28T17:42:48.170Z,97.80
2022-12-28T17:45:14.952Z,97.80
2022-12-28T17:47:41.657Z,97.80
2022-12-28T17:50:09.013Z,97.80
2022-12-28T17:52:35.650Z,97.40
2022-12-28T17:55:03.437Z,97.00
2022-12-28T17:57:33.981Z,97.30
2022-12-28T18:00:04.449Z,97.50
2022-12-28T18:02:39.036Z,97.60
2022-12-28T18:05:06.447Z,97.80
2022-12-28T18:07:33.830Z,97.30
2022-12-28T18:10:00.488Z,97.40
2022-12-28T18:12:27.173Z,97.50
2022-12-28T18:14:53.829Z,97.60
2022-12-28T18:17:23.149Z,97.50
2022-12-28T18:19:50.373Z,97.70
2022-12-28T18:22:17.048Z,97.80
2022-12-28T18:24:43.708Z,97.60
2022-12-28T18:27:10.348Z,97.50
2022-12-28T18:29:37.062Z,97.80
2022-12-28T18:32:03.871Z,97.90
2022-12-28T18:34:30.567Z,98.10
2022-12-28T18:36:57.212Z,98.20
2022-12-28T18:39:23.897Z,98.10
2022-12-28T18:41:50.539Z,98.30
2022-12-28T18:44:18.073Z,98.30
2022-12-28T18:46:44.775Z,98.30
2022-12-28T18:49:11.422Z,98.30
2022-12-28T18:51:38.059Z,98.30
2022-12-28T18:54:05.599Z,98.30
2022-12-28T18:56:32.252Z,98.30
2022-12-28T18:58:59.013Z,98.30
2022-12-28T19:04:16.119Z,98.30
2022-12-28T19:06:43.622Z,98.30
2022-12-28T19:09:11.257Z,98.30
2022-12-28T19:11:39.347Z,98.30
2022-12-28T19:14:08.091Z,98.30
2022-12-28T19:16:35.043Z,98.30
2022-12-28T19:19:01.998Z,98.30
2022-12-28T19:21:31.260Z,98.30
2022-12-28T19:24:03.203Z,98.30
2022-12-28T19:26:31.273Z,98.30
2022-12-28T19:28:58.350Z,98.30
2022-12-28T19:31:25.298Z,98.00
2022-12-28T19:33:55.280Z,98.10
2022-12-28T19:36:24.669Z,98.00
2022-12-28T19:38:56.454Z,97.90
2022-12-28T19:41:24.625Z,98.10
2022-12-28T19:43:51.406Z,98.30
2022-12-28T19:46:30.461Z,98.30
2022-12-28T19:49:04.327Z,98.30
2022-12-28T19:51:32.919Z,98.30
2022-12-28T19:54:01.093Z,98.30
2022-12-28T19:56:27.831Z,98.30
2022-12-28T19:58:59.477Z,98.30
2022-12-28T20:01:30.176Z,98.30
2022-12-28T20:03:57.135Z,98.30
2022-12-28T20:06:27.118Z,98.30
2022-12-28T20:08:59.581Z,98.30
2022-12-28T20:11:30.491Z,98.30
2022-12-28T20:14:02.212Z,98.30
2022-12-28T20:16:32.091Z,98.30
2022-12-28T20:19:01.404Z,98.30
2022-12-28T20:21:28.191Z,98.30
2022-12-28T20:23:55.176Z,98.30
2022-12-28T20:26:24.916Z,98.30
2022-12-28T20:28:52.995Z,98.30
2022-12-28T20:31:20.096Z,98.30
2022-12-28T20:33:52.927Z,98.30
2022-12-28T20:36:22.733Z,98.30
2022-12-28T20:38:49.818Z,98.30
2022-12-28T20:41:36.335Z,98.30
2022-12-28T20:44:09.629Z,98.30
2022-12-28T20:46:36.874Z,98.30
2022-12-28T20:49:04.127Z,98.30
2022-12-28T20:51:31.186Z,98.30
2022-12-28T20:53:57.938Z,98.30
2022-12-28T20:56:24.813Z,98.30
2022-12-28T20:58:53.270Z,98.30
2022-12-28T21:01:23.790Z,98.30
2022-12-28T21:03:50.540Z,98.30
2022-12-28T21:06:17.363Z,98.30
2022-12-28T21:08:44.284Z,98.30
2022-12-28T21:11:11.499Z,98.30
2022-12-28T21:13:48.085Z,98.30
2022-12-28T21:16:22.620Z,98.30
2022-12-28T21:18:50.841Z,98.30
2022-12-28T21:21:21.668Z,98.30
2022-12-28T21:23:48.623Z,98.30
2022-12-28T21:26:17.249Z,98.30
2022-12-28T21:28:44.067Z,98.30
2022-12-28T21:31:11.468Z,98.30
2022-12-28T21:33:39.196Z,98.30
2022-12-28T21:36:24.050Z,98.30
2022-12-28T21:38:50.825Z,98.30
2022-12-28T21:41:41.226Z,98.30
2022-12-28T21:44:10.214Z,98.30
2022-12-28T21:46:37.280Z,98.30
2022-12-28T21:49:05.196Z,98.30
2022-12-28T21:51:32.185Z,98.30
2022-12-28T21:54:00.489Z,98.30
2022-12-28T21:56:28.053Z,98.30
2022-12-28T21:58:55.653Z,98.30
2022-12-28T22:01:41.177Z,98.30
2022-12-28T22:04:32.414Z,98.30
2022-12-28T22:06:59.786Z,98.30
2022-12-28T22:09:45.531Z,98.30
2022-12-28T22:12:32.982Z,98.30
2022-12-28T22:15:19.030Z,98.30
2022-12-28T22:17:46.695Z,98.30
2022-12-28T22:20:15.531Z,98.30
2022-12-28T22:22:43.467Z,98.30
2022-12-28T22:25:12.535Z,98.30
2022-12-28T22:27:39.535Z,98.30
2022-12-28T22:30:06.675Z,98.30
2022-12-28T22:32:33.394Z,98.30
2022-12-28T22:35:00.035Z,98.10
2022-12-28T22:37:26.686Z,98.20
2022-12-28T22:39:53.381Z,98.10
2022-12-28T22:42:20.189Z,97.80
2022-12-28T22:44:46.857Z,97.70
2022-12-28T22:47:13.524Z,97.30
2022-12-28T22:49:40.131Z,97.20
2022-12-28T22:52:06.792Z,97.10
2022-12-28T22:54:33.439Z,97.00
2022-12-28T22:57:00.147Z,96.90
2022-12-28T22:59:26.783Z,97.00
2022-12-28T23:01:54.150Z,96.20
2022-12-28T23:04:21.083Z,95.80
2022-12-28T23:06:47.745Z,96.10
2022-12-28T23:09:14.486Z,95.10
2022-12-28T23:11:41.201Z,94.90
2022-12-28T23:14:43.530Z,95.30
2022-12-28T23:17:20.201Z,94.70
2022-12-28T23:20:06.313Z,95.30
2022-12-28T23:22:53.543Z,94.20
2022-12-28T23:25:41.413Z,94.60
2022-12-28T23:28:11.303Z,95.40
2022-12-28T23:30:41.220Z,94.70
2022-12-28T23:33:07.896Z,95.30
2022-12-28T23:35:34.628Z,95.50
2022-12-28T23:38:01.406Z,95.30
2022-12-28T23:40:28.217Z,94.90
2022-12-28T23:42:55.041Z,94.10
2022-12-28T23:45:22.090Z,94.00
2022-12-28T23:47:51.860Z,94.60
2022-12-28T23:50:19.276Z,93.90
2022-12-28T23:52:45.919Z,93.70
2022-12-28T23:55:12.585Z,93.20
2022-12-28T23:57:39.258Z,93.50
